createdAt,value
2022-11-28T00:00:31.719Z,40.58
2022-11-28T00:01:31.610Z,46.85
2022-11-28T00:02:31.707Z,51.15
2022-11-28T00:03:31.665Z,59.14
2022-11-28T00:04:31.631Z,48.64
2022-11-28T00:05:31.582Z,50.44
2022-11-28T00:06:31.565Z,42.53
2022-11-28T00:07:31.616Z,41.42
2022-11-28T00:08:31.560Z,46.81
2022-11-28T00:09:31.579Z,46.63
2022-11-28T00:10:31.540Z,48.39
2022-11-28T00:11:31.535Z,48.69
2022-11-28T00:12:31.517Z,56.31
2022-11-28T00:13:31.532Z,48.69
2022-11-28T00:14:31.505Z,51.87
2022-11-28T00:15:31.494Z,53.74
2022-11-28T00:16:31.684Z,55.00
2022-11-28T00:17:31.478Z,45.56
2022-11-28T00:18:31.481Z,48.87
2022-11-28T00:19:31.462Z,48.17
2022-11-28T00:20:31.453Z,44.97
2022-11-28T00:21:31.467Z,52.92
2022-11-28T00:22:31.467Z,49.46
2022-11-28T00:23:31.439Z,53.79
2022-11-28T00:24:31.422Z,56.19
2022-11-28T00:25:31.411Z,50.31
2022-11-28T00:26:31.406Z,55.58
2022-11-28T00:29:31.388Z,43.48
2022-11-28T00:30:31.406Z,58.28
2022-11-28T00:31:32.538Z,56.99
2022-11-28T00:32:32.550Z,46.28
2022-11-28T00:33:32.445Z,48.51
2022-11-28T00:34:32.449Z,45.07
2022-11-28T00:35:32.442Z,42.12
2022-11-28T00:36:32.423Z,53.39
2022-11-28T00:37:32.421Z,54.83
2022-11-28T00:38:32.421Z,48.12
2022-11-28T00:39:32.403Z,51.03
2022-11-28T00:40:32.414Z,43.18
2022-11-28T00:41:32.386Z,49.62
2022-11-28T00:42:32.379Z,46.01
2022-11-28T00:43:32.397Z,46.08
2022-11-28T00:44:32.373Z,52.80
2022-11-28T00:45:32.381Z,59.11
2022-11-28T00:46:32.358Z,55.27
2022-11-28T00:47:32.338Z,54.98
2022-11-28T00:48:32.483Z,46.03
2022-11-28T00:49:32.328Z,52.10
2022-11-28T00:50:32.317Z,51.29
2022-11-28T00:51:32.317Z,45.71
2022-11-28T00:52:32.297Z,51.84
2022-11-28T00:53:32.288Z,47.17
2022-11-28T00:54:32.342Z,46.21
2022-11-28T00:55:32.272Z,53.99
2022-11-28T00:56:32.289Z,41.72
2022-11-28T00:57:32.827Z,42.27
2022-11-28T00:58:32.274Z,49.22
2022-11-28T00:59:33.282Z,43.65
2022-11-28T01:00:32.238Z,43.41
2022-11-28T01:01:32.267Z,43.74
2022-11-28T01:02:32.233Z,45.78
2022-11-28T01:03:32.204Z,43.56
2022-11-28T01:04:32.303Z,47.63
2022-11-28T01:05:32.193Z,60.10
2022-11-28T01:06:32.349Z,55.46
2022-11-28T01:07:33.902Z,57.27
2022-11-28T01:08:32.177Z,54.28
2022-11-28T01:09:32.167Z,49.23
2022-11-28T01:10:32.151Z,56.82
2022-11-28T01:11:32.151Z,52.65
2022-11-28T01:12:32.142Z,56.00
2022-11-28T01:13:32.123Z,45.19
2022-11-28T01:14:32.117Z,40.82
2022-11-28T01:15:32.115Z,41.51
2022-11-28T01:16:32.156Z,48.27
2022-11-28T01:17:32.093Z,46.74
2022-11-28T01:18:32.095Z,51.14
2022-11-28T01:19:32.072Z,49.66
2022-11-28T01:20:32.160Z,50.49
2022-11-28T01:21:32.107Z,55.41
2022-11-28T01:22:32.053Z,41.60
2022-11-28T01:23:32.048Z,47.14
2022-11-28T01:24:32.040Z,44.66
2022-11-28T01:25:32.020Z,47.84
2022-11-28T01:26:32.031Z,41.66
2022-11-28T01:27:32.007Z,49.36
2022-11-28T01:28:31.998Z,54.04
2022-11-28T01:29:31.990Z,43.68
2022-11-28T01:30:31.983Z,42.78
2022-11-28T01:31:32.058Z,44.07
2022-11-28T01:32:31.973Z,47.48
2022-11-28T01:33:31.966Z,49.18
2022-11-28T01:34:31.953Z,47.14
2022-11-28T01:35:31.947Z,48.65
2022-11-28T01:36:32.043Z,43.30
2022-11-28T01:37:31.946Z,52.10
2022-11-28T01:38:31.923Z,44.61
2022-11-28T01:39:31.909Z,45.17
2022-11-28T01:40:31.919Z,44.58
2022-11-28T01:41:31.914Z,49.30
2022-11-28T01:42:31.908Z,47.53
2022-11-28T01:43:31.878Z,48.65
2022-11-28T01:44:31.903Z,51.94
2022-11-28T01:45:31.866Z,51.69
2022-11-28T01:46:31.875Z,55.65
2022-11-28T01:47:31.857Z,43.95
2022-11-28T01:48:31.862Z,46.41
2022-11-28T01:49:31.831Z,46.85
2022-11-28T01:50:31.820Z,44.52
2022-11-28T01:51:31.825Z,44.41
2022-11-28T01:52:31.898Z,47.65
2022-11-28T01:53:31.802Z,52.46
2022-11-28T01:54:31.787Z,55.78
2022-11-28T01:55:31.790Z,45.51
2022-11-28T01:56:32.341Z,47.78
2022-11-28T01:57:31.764Z,49.85
2022-11-28T01:58:31.759Z,55.11
2022-11-28T01:59:31.749Z,43.91
2022-11-28T02:00:31.829Z,43.49
2022-11-28T02:01:31.746Z,45.91
2022-11-28T02:02:31.781Z,45.23
2022-11-28T02:03:31.721Z,49.53
2022-11-28T02:04:31.708Z,55.13
2022-11-28T02:05:32.271Z,59.93
2022-11-28T02:06:31.696Z,56.17
2022-11-28T02:07:31.712Z,51.34
2022-11-28T02:08:31.773Z,52.76
2022-11-28T02:09:31.675Z,44.24
2022-11-28T02:10:31.672Z,45.86
2022-11-28T02:11:31.654Z,47.41
2022-11-28T02:12:31.662Z,44.66
2022-11-28T02:13:31.641Z,45.51
2022-11-28T02:14:31.637Z,45.54
2022-11-28T02:15:31.638Z,44.61
2022-11-28T02:16:32.385Z,50.55
2022-11-28T02:17:31.612Z,55.82
2022-11-28T02:18:31.597Z,58.54
2022-11-28T02:19:31.583Z,56.77
2022-11-28T02:20:31.591Z,53.45
2022-11-28T02:21:31.567Z,50.35
2022-11-28T02:22:32.268Z,45.16
2022-11-28T02:23:31.563Z,43.69
2022-11-28T02:24:31.643Z,48.53
2022-11-28T02:25:31.550Z,45.96
2022-11-28T02:26:31.546Z,47.13
2022-11-28T02:27:31.534Z,53.23
2022-11-28T02:28:31.510Z,54.74
2022-11-28T02:29:31.499Z,44.14
2022-11-28T02:30:31.490Z,47.91
2022-11-28T02:31:31.519Z,56.92
2022-11-28T02:32:32.351Z,54.49
2022-11-28T02:33:31.471Z,54.19
2022-11-28T02:34:31.470Z,53.08
2022-11-28T02:35:31.452Z,53.60
2022-11-28T02:36:31.441Z,44.84
2022-11-28T02:37:31.448Z,48.16
2022-11-28T02:38:31.441Z,52.85
2022-11-28T02:39:31.448Z,45.57
2022-11-28T02:40:31.514Z,43.91
2022-11-28T02:41:31.408Z,58.97
2022-11-28T02:42:31.400Z,49.10
2022-11-28T02:43:31.397Z,42.84
2022-11-28T02:44:31.397Z,44.31
2022-11-28T02:45:31.368Z,49.94
2022-11-28T02:46:31.432Z,51.92
2022-11-28T02:47:31.346Z,52.51
2022-11-28T02:48:33.349Z,53.34
2022-11-28T02:49:31.340Z,45.62
2022-11-28T02:50:31.339Z,49.17
2022-11-28T02:51:31.324Z,43.56
2022-11-28T02:52:31.322Z,43.81
2022-11-28T02:53:31.336Z,44.76
2022-11-28T02:54:31.296Z,52.93
2022-11-28T02:55:31.300Z,55.64
2022-11-28T02:56:31.384Z,52.20
2022-11-28T02:57:31.271Z,60.05
2022-11-28T02:58:31.268Z,54.19
2022-11-28T02:59:31.255Z,52.98
2022-11-28T03:00:31.360Z,56.80
2022-11-28T03:01:31.311Z,52.71
2022-11-28T03:02:31.289Z,46.03
2022-11-28T03:03:31.230Z,49.31
2022-11-28T03:04:31.231Z,47.70
2022-11-28T03:05:31.216Z,48.37
2022-11-28T03:06:31.202Z,53.10
2022-11-28T03:07:31.243Z,53.21
2022-11-28T03:08:31.184Z,49.78
2022-11-28T03:09:31.182Z,56.43
2022-11-28T03:10:31.169Z,54.34
2022-11-28T03:11:31.182Z,51.19
2022-11-28T03:12:31.266Z,58.09
2022-11-28T03:13:31.145Z,46.46
2022-11-28T03:14:31.164Z,49.41
2022-11-28T03:15:31.126Z,54.91
2022-11-28T03:16:31.247Z,55.02
2022-11-28T03:17:31.117Z,58.65
2022-11-28T03:18:31.113Z,56.40
2022-11-28T03:19:31.099Z,55.58
2022-11-28T03:20:31.090Z,53.75
2022-11-28T03:21:31.083Z,51.67
2022-11-28T03:22:31.070Z,51.96
2022-11-28T03:23:31.073Z,44.64
2022-11-28T03:24:31.061Z,51.77
2022-11-28T03:25:31.057Z,54.01
2022-11-28T03:26:31.041Z,52.74
2022-11-28T03:27:31.032Z,54.63
2022-11-28T03:28:31.127Z,52.31
2022-11-28T03:29:31.024Z,56.64
2022-11-28T03:30:31.010Z,55.83
2022-11-28T03:31:31.040Z,52.84
2022-11-28T03:32:31.011Z,59.97
2022-11-28T03:33:30.988Z,60.33
2022-11-28T03:34:31.389Z,56.19
2022-11-28T03:35:30.976Z,51.78
2022-11-28T03:36:30.959Z,46.40
2022-11-28T03:37:30.967Z,53.78
2022-11-28T03:38:30.943Z,51.41
2022-11-28T03:39:30.942Z,49.17
2022-11-28T03:40:30.954Z,55.94
2022-11-28T03:41:30.967Z,56.70
2022-11-28T03:42:30.919Z,57.09
2022-11-28T03:43:30.905Z,55.90
2022-11-28T03:44:31.006Z,55.89
2022-11-28T03:45:30.901Z,51.70
2022-11-28T03:46:30.898Z,57.60
2022-11-28T03:47:30.876Z,55.63
2022-11-28T03:48:30.880Z,53.20
2022-11-28T03:49:31.360Z,55.58
2022-11-28T03:50:30.862Z,58.48
2022-11-28T03:51:30.842Z,54.40
2022-11-28T03:52:30.837Z,56.86
2022-11-28T03:53:30.827Z,60.17
2022-11-28T03:54:30.836Z,58.42
2022-11-28T03:55:30.864Z,59.80
2022-11-28T03:56:30.822Z,60.90
2022-11-28T03:57:30.792Z,61.55
2022-11-28T03:58:30.794Z,59.52
2022-11-28T03:59:30.777Z,57.38
2022-11-28T04:00:30.872Z,56.22
2022-11-28T04:01:30.808Z,55.60
2022-11-28T04:02:30.763Z,58.51
2022-11-28T04:03:30.792Z,61.08
2022-11-28T04:04:30.744Z,61.73
2022-11-28T04:05:30.738Z,58.82
2022-11-28T04:06:30.732Z,66.43
2022-11-28T04:07:30.774Z,59.41
2022-11-28T04:08:30.703Z,58.76
2022-11-28T04:09:30.699Z,60.13
2022-11-28T04:10:30.699Z,63.77
2022-11-28T04:11:30.683Z,55.06
2022-11-28T04:12:30.691Z,55.42
2022-11-28T04:13:30.664Z,60.34
2022-11-28T04:14:30.672Z,61.34
2022-11-28T04:15:30.649Z,61.07
2022-11-28T04:16:30.789Z,58.83
2022-11-28T04:17:30.639Z,58.94
2022-11-28T04:18:30.626Z,59.71
2022-11-28T04:19:30.622Z,62.43
2022-11-28T04:20:30.604Z,62.37
2022-11-28T04:21:30.609Z,65.65
2022-11-28T04:22:30.597Z,57.54
2022-11-28T04:23:30.576Z,55.21
2022-11-28T04:24:30.581Z,62.59
2022-11-28T04:25:30.571Z,61.73
2022-11-28T04:26:30.560Z,59.32
2022-11-28T04:27:30.545Z,62.88
2022-11-28T04:28:30.550Z,62.49
2022-11-28T04:29:30.538Z,64.82
2022-11-28T04:30:30.530Z,61.24
2022-11-28T04:31:30.571Z,65.40
2022-11-28T04:32:30.615Z,66.30
2022-11-28T04:33:30.507Z,63.72
2022-11-28T04:34:30.483Z,62.01
2022-11-28T04:35:30.499Z,66.48
2022-11-28T04:36:30.473Z,64.32
2022-11-28T04:37:30.477Z,65.19
2022-11-28T04:38:30.456Z,63.53
2022-11-28T04:39:30.439Z,61.56
2022-11-28T04:40:31.446Z,66.52
2022-11-28T04:41:30.431Z,60.79
2022-11-28T04:42:30.431Z,62.29
2022-11-28T04:43:30.420Z,63.33
2022-11-28T04:44:30.420Z,58.60
2022-11-28T04:45:30.440Z,60.34
2022-11-28T04:46:30.406Z,60.50
2022-11-28T04:47:30.386Z,64.93
2022-11-28T04:48:34.251Z,60.11
2022-11-28T04:49:31.378Z,61.71
2022-11-28T04:50:30.355Z,63.45
2022-11-28T04:51:30.346Z,65.65
2022-11-28T04:52:30.341Z,63.42
2022-11-28T04:53:30.323Z,58.33
2022-11-28T04:54:31.328Z,63.84
2022-11-28T04:55:30.332Z,63.34
2022-11-28T04:56:30.314Z,63.68
2022-11-28T04:57:30.297Z,63.24
2022-11-28T04:58:30.290Z,64.17
2022-11-28T04:59:30.291Z,63.47
2022-11-28T05:00:30.335Z,62.77
2022-11-28T05:01:30.337Z,63.73
2022-11-28T05:02:30.334Z,65.91
2022-11-28T05:03:30.796Z,64.76
2022-11-28T05:04:30.361Z,62.67
2022-11-28T05:05:30.303Z,59.68
2022-11-28T05:06:30.232Z,64.08
2022-11-28T05:07:30.294Z,58.92
2022-11-28T05:08:30.882Z,59.09
2022-11-28T05:09:30.210Z,61.32
2022-11-28T05:10:30.219Z,59.88
2022-11-28T05:11:30.201Z,59.16
2022-11-28T05:12:30.177Z,61.99
2022-11-28T05:13:30.186Z,61.16
2022-11-28T05:14:30.168Z,62.57
2022-11-28T05:15:30.167Z,60.78
2022-11-28T05:16:30.196Z,61.54
2022-11-28T05:17:30.145Z,64.23
2022-11-28T05:18:30.133Z,65.37
2022-11-28T05:19:30.141Z,62.68
2022-11-28T05:20:31.906Z,63.94
2022-11-28T05:21:30.888Z,67.04
2022-11-28T05:22:30.109Z,63.40
2022-11-28T05:23:30.092Z,63.62
2022-11-28T05:24:32.395Z,62.21
2022-11-28T05:25:31.182Z,64.67
2022-11-28T05:26:30.082Z,64.58
2022-11-28T05:27:30.058Z,64.99
2022-11-28T05:28:30.053Z,60.78
2022-11-28T05:29:30.890Z,63.74
2022-11-28T05:30:30.056Z,64.47
2022-11-28T05:31:30.080Z,62.52
2022-11-28T05:32:30.024Z,64.14
2022-11-28T05:33:30.011Z,65.73
2022-11-28T05:34:30.072Z,63.40
2022-11-28T05:35:30.885Z,65.85
2022-11-28T05:36:30.088Z,65.83
2022-11-28T05:37:30.026Z,61.26
2022-11-28T05:38:29.983Z,66.74
2022-11-28T05:39:29.967Z,63.82
2022-11-28T05:40:29.958Z,60.42
2022-11-28T05:41:29.973Z,64.43
2022-11-28T05:42:29.935Z,63.06
2022-11-28T05:43:29.931Z,64.74
2022-11-28T05:44:29.929Z,63.13
2022-11-28T05:45:29.991Z,65.09
2022-11-28T05:46:29.907Z,64.24
2022-11-28T05:47:29.899Z,64.03
2022-11-28T05:48:29.891Z,66.06
2022-11-28T05:49:29.934Z,64.30
2022-11-28T05:50:29.884Z,67.17
2022-11-28T05:51:29.868Z,68.55
2022-11-28T05:52:29.952Z,66.79
2022-11-28T05:53:29.851Z,66.63
2022-11-28T05:54:29.921Z,66.49
2022-11-28T05:55:29.832Z,64.77
2022-11-28T05:56:29.838Z,65.07
2022-11-28T05:57:29.830Z,63.68
2022-11-28T05:58:29.804Z,62.95
2022-11-28T05:59:29.810Z,65.68
2022-11-28T06:00:29.796Z,65.17
2022-11-28T06:01:29.795Z,64.56
2022-11-28T06:02:29.867Z,69.88
2022-11-28T06:03:29.758Z,66.34
2022-11-28T06:04:29.798Z,64.61
2022-11-28T06:05:42.270Z,65.86
2022-11-28T06:06:31.745Z,61.79
2022-11-28T06:07:29.774Z,65.30
2022-11-28T06:08:30.485Z,66.68
2022-11-28T06:09:30.716Z,64.76
2022-11-28T06:10:29.710Z,63.80
2022-11-28T06:11:29.700Z,64.55
2022-11-28T06:12:31.325Z,66.07
2022-11-28T06:13:29.681Z,68.28
2022-11-28T06:14:29.683Z,65.94
2022-11-28T06:15:32.588Z,66.75
2022-11-28T06:16:29.773Z,66.04
2022-11-28T06:17:29.665Z,66.61
2022-11-28T06:18:29.650Z,67.15
2022-11-28T06:19:29.648Z,64.39
2022-11-28T06:20:29.639Z,66.42
2022-11-28T06:21:29.629Z,67.23
2022-11-28T06:22:29.606Z,70.92
2022-11-28T06:23:29.601Z,65.07
2022-11-28T06:24:29.697Z,66.35
2022-11-28T06:25:29.646Z,69.24
2022-11-28T06:26:29.586Z,64.31
2022-11-28T06:27:29.669Z,66.00
2022-11-28T06:28:29.634Z,65.42
2022-11-28T06:29:29.587Z,66.88
2022-11-28T06:30:29.557Z,70.38
2022-11-28T06:31:29.724Z,71.93
2022-11-28T06:32:29.527Z,68.93
2022-11-28T06:33:29.531Z,68.68
2022-11-28T06:34:29.537Z,66.32
2022-11-28T06:35:29.512Z,68.09
2022-11-28T06:36:29.499Z,66.75
2022-11-28T06:37:29.479Z,67.65
2022-11-28T06:38:29.483Z,65.93
2022-11-28T06:39:30.389Z,67.96
2022-11-28T06:40:29.564Z,68.08
2022-11-28T06:41:29.450Z,67.84
2022-11-28T06:42:29.441Z,67.66
2022-11-28T06:43:29.453Z,66.38
2022-11-28T06:44:29.425Z,67.74
2022-11-28T06:45:29.504Z,66.21
2022-11-28T06:46:30.457Z,63.74
2022-11-28T06:47:29.440Z,66.04
2022-11-28T06:48:29.421Z,66.14
2022-11-28T06:49:29.400Z,65.30
2022-11-28T06:50:29.387Z,66.84
2022-11-28T06:51:29.376Z,67.39
2022-11-28T06:52:29.376Z,66.64
2022-11-28T06:53:31.602Z,67.51
2022-11-28T06:54:30.349Z,68.03
2022-11-28T06:55:29.365Z,67.25
2022-11-28T06:56:29.429Z,66.04
2022-11-28T06:57:29.339Z,65.83
2022-11-28T06:58:29.309Z,65.48
2022-11-28T06:59:29.295Z,67.08
2022-11-28T07:00:29.372Z,69.49
2022-11-28T07:01:29.348Z,69.95
2022-11-28T07:02:29.364Z,65.83
2022-11-28T07:03:29.261Z,69.25
2022-11-28T07:04:29.266Z,66.70
2022-11-28T07:05:29.255Z,69.38
2022-11-28T07:06:29.243Z,67.42
2022-11-28T07:07:29.295Z,64.98
2022-11-28T07:08:29.270Z,67.21
2022-11-28T07:09:29.232Z,66.08
2022-11-28T07:10:29.325Z,65.70
2022-11-28T07:11:29.200Z,65.01
2022-11-28T07:12:29.288Z,66.01
2022-11-28T07:13:29.184Z,64.67
2022-11-28T07:14:29.206Z,67.69
2022-11-28T07:15:29.171Z,63.82
2022-11-28T07:16:29.276Z,65.00
2022-11-28T07:17:31.909Z,66.65
2022-11-28T07:18:29.157Z,69.28
2022-11-28T07:19:29.131Z,67.35
2022-11-28T07:20:29.177Z,68.98
2022-11-28T07:21:29.188Z,72.37
2022-11-28T07:22:29.105Z,68.64
2022-11-28T07:23:29.116Z,67.16
2022-11-28T07:24:29.088Z,66.74
2022-11-28T07:25:29.074Z,67.99
2022-11-28T07:26:29.072Z,66.58
2022-11-28T07:27:29.070Z,66.87
2022-11-28T07:28:29.164Z,68.06
2022-11-28T07:29:29.051Z,67.23
2022-11-28T07:30:29.185Z,70.67
2022-11-28T07:31:29.099Z,64.62
2022-11-28T07:32:29.027Z,69.60
2022-11-28T07:33:29.053Z,67.06
2022-11-28T07:34:29.045Z,67.24
2022-11-28T07:35:29.001Z,68.68
2022-11-28T07:36:28.994Z,65.86
2022-11-28T07:37:29.023Z,66.93
2022-11-28T07:38:29.844Z,65.89
2022-11-28T07:39:28.974Z,66.44
2022-11-28T07:40:31.858Z,66.91
2022-11-28T07:41:28.963Z,66.20
2022-11-28T07:42:28.921Z,65.25
2022-11-28T07:43:29.948Z,64.80
2022-11-28T07:44:28.960Z,66.36
2022-11-28T07:45:41.858Z,64.70
2022-11-28T07:46:31.033Z,66.89
2022-11-28T07:47:28.894Z,64.86
2022-11-28T07:48:28.893Z,63.56
2022-11-28T07:49:28.885Z,64.45
2022-11-28T07:50:28.895Z,67.87
2022-11-28T07:51:29.832Z,67.66
2022-11-28T07:52:28.862Z,68.15
2022-11-28T07:53:28.852Z,66.27
2022-11-28T07:54:28.843Z,69.18
2022-11-28T07:55:28.826Z,65.28
2022-11-28T07:56:39.408Z,67.66
2022-11-28T07:57:30.832Z,65.84
2022-11-28T07:58:28.813Z,69.12
2022-11-28T07:59:28.806Z,67.22
2022-11-28T08:00:28.792Z,69.55
2022-11-28T08:01:28.779Z,68.08
2022-11-28T08:02:28.828Z,68.02
2022-11-28T08:03:28.779Z,67.70
2022-11-28T08:04:28.873Z,67.38
2022-11-28T08:05:28.781Z,65.63
2022-11-28T08:06:28.738Z,67.37
2022-11-28T08:07:28.763Z,65.17
2022-11-28T08:08:28.731Z,66.17
2022-11-28T08:09:28.716Z,66.54
2022-11-28T08:10:28.718Z,66.64
2022-11-28T08:11:28.690Z,64.82
2022-11-28T08:12:30.326Z,66.92
2022-11-28T08:13:28.694Z,65.79
2022-11-28T08:14:31.422Z,65.76
2022-11-28T21:28:40.906Z,64.42
2022-11-28T21:29:40.904Z,62.49
2022-11-28T21:30:40.865Z,64.16
2022-11-28T21:31:40.891Z,65.13
2022-11-28T21:32:40.846Z,63.28
2022-11-28T21:33:40.838Z,66.03
2022-11-28T21:34:40.827Z,64.03
2022-11-28T21:35:40.827Z,62.10
2022-11-28T21:36:40.817Z,60.62
2022-11-28T21:37:41.932Z,59.46
2022-11-28T21:38:41.908Z,62.31
2022-11-28T21:39:42.207Z,62.50
2022-11-28T21:40:42.035Z,60.50
2022-11-28T21:41:41.875Z,58.89
2022-11-28T21:42:41.868Z,58.47
2022-11-28T21:43:42.825Z,68.18
2022-11-28T21:44:41.854Z,67.03
2022-11-28T21:45:41.884Z,63.67
2022-11-28T21:46:41.843Z,55.86
2022-11-28T21:47:41.825Z,64.24
2022-11-28T21:48:41.813Z,61.40
2022-11-28T21:49:41.999Z,59.89
2022-11-28T21:50:41.810Z,56.25
2022-11-28T21:51:41.794Z,61.41
2022-11-28T21:52:41.781Z,60.89
2022-11-28T21:53:41.799Z,63.55
2022-11-28T21:54:41.772Z,62.67
2022-11-28T21:55:41.832Z,63.85
2022-11-28T21:56:41.755Z,63.89
2022-11-28T21:57:41.740Z,62.71
2022-11-28T21:58:41.737Z,62.37
2022-11-28T21:59:42.161Z,58.57
2022-11-28T22:00:54.046Z,64.77
2022-11-28T22:01:43.747Z,59.14
2022-11-28T22:02:41.774Z,58.22
2022-11-28T22:03:41.708Z,52.59
2022-11-28T22:04:41.826Z,58.70
2022-11-28T22:05:41.677Z,47.19
2022-11-28T22:06:41.670Z,62.16
2022-11-28T22:07:41.700Z,62.87
2022-11-28T22:08:41.650Z,58.71
2022-11-28T22:11:48.489Z,61.24
2022-11-28T22:12:49.569Z,50.68
2022-11-28T22:13:49.565Z,51.99
2022-11-28T22:14:49.933Z,57.24
2022-11-28T22:15:49.612Z,63.46
2022-11-28T22:16:49.568Z,60.17
2022-11-28T22:17:50.534Z,61.16
2022-11-28T22:18:49.520Z,61.85
2022-11-28T22:19:49.509Z,57.29
2022-11-28T22:20:52.816Z,60.19
2022-11-28T22:21:52.276Z,58.46
2022-11-28T22:22:50.497Z,58.72
2022-11-28T22:23:49.478Z,56.46
2022-11-28T22:24:49.761Z,60.48
2022-11-28T22:25:49.476Z,55.15
2022-11-28T22:26:49.498Z,50.92
2022-11-28T22:27:49.442Z,60.53
2022-11-28T22:28:53.576Z,65.89
2022-11-28T22:29:50.429Z,51.31
2022-11-28T22:30:49.438Z,61.33
2022-11-28T22:31:49.445Z,61.70
2022-11-28T22:32:49.406Z,60.18
2022-11-28T22:33:49.432Z,66.92
2022-11-28T22:34:49.391Z,62.73
2022-11-28T22:35:49.391Z,62.12
2022-11-28T22:36:49.373Z,61.64
2022-11-28T22:37:49.367Z,58.83
2022-11-28T22:38:49.355Z,58.14
2022-11-28T22:39:49.353Z,60.89
2022-11-28T22:40:49.338Z,60.86
2022-11-28T22:41:49.334Z,66.25
2022-11-28T22:42:49.326Z,66.98
2022-11-28T22:43:49.312Z,62.13
2022-11-28T22:44:49.319Z,58.06
2022-11-28T22:45:49.311Z,61.16
2022-11-28T22:46:49.303Z,62.38
2022-11-28T22:47:49.293Z,58.81
2022-11-28T22:48:49.275Z,61.23
2022-11-28T22:49:49.262Z,63.87
2022-11-28T22:50:49.263Z,61.18
2022-11-28T22:51:49.262Z,66.61
2022-11-28T22:52:49.243Z,58.82
2022-11-28T22:53:49.234Z,60.84
2022-11-28T22:54:49.232Z,58.21
2022-11-28T22:55:49.228Z,57.01
2022-11-28T22:56:49.219Z,44.68
2022-11-28T22:57:49.209Z,54.02
2022-11-28T22:58:49.197Z,60.10
2022-11-28T22:59:49.207Z,52.84
2022-11-28T23:00:49.194Z,59.67
2022-11-28T23:01:49.356Z,52.04
2022-11-28T23:02:49.351Z,51.17
2022-11-28T23:03:49.153Z,56.56
2022-11-28T23:04:49.152Z,52.99
2022-11-28T23:05:49.467Z,57.49
2022-11-28T23:06:50.129Z,54.66
2022-11-28T23:07:49.165Z,51.19
2022-11-28T23:08:49.114Z,60.07
2022-11-28T23:09:49.115Z,59.86
2022-11-28T23:10:49.108Z,60.92
2022-11-28T23:11:49.099Z,63.26
2022-11-28T23:12:49.093Z,62.13
2022-11-28T23:13:49.087Z,56.58
2022-11-28T23:14:49.067Z,61.06
2022-11-28T23:15:52.760Z,65.97
2022-11-28T23:16:50.075Z,62.79
2022-11-28T23:17:49.045Z,55.01
2022-11-28T23:18:49.036Z,60.94
2022-11-28T23:19:49.031Z,62.06
2022-11-28T23:20:49.017Z,57.40
2022-11-28T23:21:49.049Z,55.65
2022-11-28T23:22:49.042Z,55.29
2022-11-28T23:23:49.001Z,53.74
2022-11-28T23:24:48.995Z,58.12
2022-11-28T23:25:48.980Z,50.61
2022-11-28T23:26:48.981Z,55.52
2022-11-28T23:27:48.989Z,54.19
2022-11-28T23:28:48.957Z,54.06
2022-11-28T23:29:48.953Z,45.99
2022-11-28T23:30:48.945Z,52.00
2022-11-28T23:31:49.160Z,57.72
2022-11-28T23:32:48.923Z,60.61
2022-11-28T23:33:48.914Z,65.12
2022-11-28T23:34:48.913Z,60.33
2022-11-28T23:35:48.922Z,56.05
2022-11-28T23:36:48.896Z,60.09
2022-11-28T23:37:48.883Z,58.34
2022-11-28T23:38:48.878Z,53.77
2022-11-28T23:39:48.871Z,63.60
2022-11-28T23:40:48.884Z,60.17
2022-11-28T23:41:48.867Z,56.55
2022-11-28T23:42:48.863Z,51.95
2022-11-28T23:43:48.853Z,60.31
2022-11-28T23:44:48.833Z,57.09
2022-11-28T23:45:48.862Z,54.37
2022-11-28T23:46:48.816Z,51.88
2022-11-28T23:47:48.804Z,53.98
2022-11-28T23:48:48.800Z,58.89
2022-11-28T23:49:48.791Z,57.89
2022-11-28T23:50:48.793Z,55.56
2022-11-28T23:51:48.778Z,45.97
2022-11-28T23:52:48.761Z,58.61
2022-11-28T23:53:51.773Z,58.92
2022-11-28T23:54:48.746Z,61.75
2022-11-28T23:55:48.743Z,60.18
2022-11-28T23:56:48.738Z,61.16
2022-11-28T23:57:48.723Z,50.09
2022-11-28T23:58:48.716Z,56.14
2022-11-28T23:59:48.713Z,53.80
